Portada
METAR-TAF:

METAR-TAF

Aeroports :

Rarotonga, Illes Cook

latitud: 21-12S, longitud: 159-49W, altitud: 7 m

Observació

L'informe es va fer fa 19 minuts, a les 03:00 UTC
Vent 5 kt del Est/Sud-Est, variant entre Est/Nord-Est i Sud/Sud-Oest
Temperatura 24°C
Humitat 69%
Pressió 1016 hPa
Visibilitat 10 km o més

METAR: NCRG 180300Z AUTO 12005KT 070V200 9999 BKN034/// 24/18 Q1016

Hora: 17:19 (03:19 UTC)

Pronòstic

L'informe es va fer fa 4 hores i 11 minuts, a les 23:08 UTC
Pronòstic vàlid del 18 a les 00 UTC al 18 a les 24 UTC
Vent 9 kt del Est/Sud-Est
Visibilitat 10 km o més
Núvols disperses a una alçada de 3000 ft

TAF: NCRG 172308Z 1800/1824 11009KT 9999 SCT030

Observacions i pronòstics meteorològics de més de 4000 aeroports (METAR i TAF).

Les estacions disponibles són els punts grocs i vermells al mapa.

Posi el ratolí al punt desitjat per veure el nom de l'estació.

Feu clic per veure les observacions i els pronòstics meteorològics.

Per canviar el mapa: feu clic els botons verds amb una creu de color negre per apropar; al botó verd amb un guió per allunyar la imatge; o en les fletxes verdes per a mapes adjacents.


METAR-TAF: